Time;durP1;ratioP1;P1;durP2;ratioP2;P2;SDS_P1;SDS_P2;PMS_P1;PMS_P2;Temp;Humidity;BMP_temperature;BMP_pressure;BME280_temperature;BME280_humidity;BME280_pressure;Samples;Min_cycle;Max_cycle;Signal;HPM_P1;HPM_P2
2022/07/28 00:02:22;;;;;;;;;;;;;;;-142.75;100.00;77326.25;5054169;28;20332;-72
2022/07/28 00:04:48;;;;;;;;;;;;;;;-142.75;100.00;77324.28;5054339;28;20653;-68
2022/07/28 00:07:13;;;;;;;;;;;;;;;-142.75;100.00;77330.19;5053985;28;19966;-72
2022/07/28 00:09:38;;;;;;;;;;;;;;;-142.75;100.00;77336.09;5054310;28;19913;-71
2022/07/28 00:12:03;;;;;;;;;;;;;;;-142.75;100.00;77334.13;5054160;28;19913;-71
2022/07/28 00:14:29;;;;;;;;;;;;;;;-142.75;100.00;77334.13;5054058;28;19919;-71
2022/07/28 00:16:54;;;;;;;;;;;;;;;-142.75;100.00;77338.06;5053877;28;19913;-71
2022/07/28 00:19:19;;;;;;;;;;;;;;;-142.75;100.00;77338.06;5053976;28;19913;-69
2022/07/28 00:21:44;;;;;;;;;;;;;;;-142.75;100.00;77351.84;5034869;28;19917;-71
2022/07/28 00:24:10;;;;;;;;;;;;;;;-142.75;100.00;77353.81;5054079;28;19958;-71
2022/07/28 00:26:35;;;;;;;;;;;;;;;-142.75;100.00;77351.84;5035736;28;19963;-68
2022/07/28 00:29:00;;;;;;;;;;;;;;;-142.75;100.00;77353.81;5053862;28;19952;-70
2022/07/28 00:31:25;;;;;;;;;;;;;;;-142.75;100.00;77359.72;5053616;28;20364;-71
2022/07/28 00:33:50;;;;;;;;;;;;;;;-142.75;100.00;77365.63;5035814;28;19913;-70
2022/07/28 00:36:16;;;;;;;;;;;;;;;-142.75;100.00;77365.63;5053640;28;19923;-71
2022/07/28 00:38:41;;;;;;;;;;;;;;;-142.75;100.00;77357.75;5035660;28;19951;-70
2022/07/28 00:41:09;;;;;;;;;;;;;;;-142.75;100.00;77359.72;5053536;28;19920;-71
2022/07/28 00:43:34;;;;;;;;;;;;;;;-142.75;100.00;77365.63;5053779;28;19921;-70
2022/07/28 00:46:00;;;;;;;;;;;;;;;-142.75;100.00;77363.66;5053475;28;19912;-71
2022/07/28 00:48:25;;;;;;;;;;;;;;;-142.75;100.00;77367.59;5053063;28;20000;-71
2022/07/28 00:50:51;;;;;;;;;;;;;;;-142.75;100.00;77373.50;5053383;28;19913;-70
2022/07/28 00:53:16;;;;;;;;;;;;;;;-142.75;100.00;77373.50;5053321;28;20393;-73
2022/07/28 00:55:41;;;;;;;;;;;;;;;-142.75;100.00;77377.44;5035249;28;19920;-71
2022/07/28 00:58:06;;;;;;;;;;;;;;;-142.75;100.00;77381.38;5053066;28;19917;-71
2022/07/28 01:00:31;;;;;;;;;;;;;;;-142.75;100.00;77377.44;5035173;28;20006;-70
2022/07/28 01:02:57;;;;;;;;;;;;;;;-142.75;100.00;77387.28;5053042;28;19963;-71
2022/07/28 01:05:24;;;;;;;;;;;;;;;-142.75;100.00;77385.31;5053005;28;19913;-71
2022/07/28 01:07:59;;;;;;;;;;;;;;;-142.75;100.00;77389.25;5052824;28;19942;-71
2022/07/28 01:10:24;;;;;;;;;;;;;;;-142.75;100.00;77389.25;5052947;28;19923;-71
2022/07/28 01:12:57;;;;;;;;;;;;;;;-142.75;100.00;77397.13;5053010;28;19912;-71
2022/07/28 01:15:28;;;;;;;;;;;;;;;-142.75;100.00;77395.16;5053013;28;19913;-71
2022/07/28 01:17:58;;;;;;;;;;;;;;;-142.75;100.00;77397.13;5052623;28;20004;-71
2022/07/28 01:20:32;;;;;;;;;;;;;;;-142.75;100.00;77395.16;5053056;28;19917;-69
2022/07/28 01:23:16;;;;;;;;;;;;;;;-142.75;100.00;77393.19;5052804;28;20564;-71
2022/07/28 01:25:47;;;;;;;;;;;;;;;-142.75;100.00;77385.31;5052979;28;19913;-70
2022/07/28 01:28:43;;;;;;;;;;;;;;;-142.75;100.00;77383.34;5052484;28;19913;-72
2022/07/28 01:31:11;;;;;;;;;;;;;;;-142.75;100.00;77393.19;5034657;28;19917;-71
2022/07/28 01:33:40;;;;;;;;;;;;;;;-142.75;100.00;77397.13;5052757;28;19921;-68
2022/07/28 01:36:08;;;;;;;;;;;;;;;-142.75;100.00;77397.13;5052733;28;19920;-71
2022/07/28 01:38:34;;;;;;;;;;;;;;;-142.75;100.00;77401.06;5052513;28;19944;-71
2022/07/28 01:41:01;;;;;;;;;;;;;;;-142.75;100.00;77401.06;5052519;28;19920;-71
2022/07/28 01:43:27;;;;;;;;;;;;;;;-142.75;100.00;77397.13;5052563;28;19981;-71
2022/07/28 01:45:54;;;;;;;;;;;;;;;-142.75;100.00;77401.06;5034815;28;19913;-71
2022/07/28 01:48:22;;;;;;;;;;;;;;;-142.75;100.00;77401.06;5052366;28;20285;-70
2022/07/28 01:50:49;;;;;;;;;;;;;;;-142.75;100.00;77408.94;5050120;28;19913;-69
2022/07/28 01:53:15;;;;;;;;;;;;;;;-142.75;100.00;77403.03;5033223;28;20022;-71
2022/07/28 01:55:42;;;;;;;;;;;;;;;-142.75;100.00;77406.97;5052563;28;19912;-70
2022/07/28 01:58:08;;;;;;;;;;;;;;;-142.75;100.00;77405.00;5051854;28;19913;-70
2022/07/28 02:00:34;;;;;;;;;;;;;;;-142.75;100.00;77401.06;5052449;28;19920;-71
2022/07/28 02:03:02;;;;;;;;;;;;;;;-142.75;100.00;77405.00;5052168;28;19916;-71
2022/07/28 02:05:28;;;;;;;;;;;;;;;-142.75;100.00;77406.97;5052367;28;19917;-71
2022/07/28 02:07:54;;;;;;;;;;;;;;;-142.75;100.00;77403.03;5051969;28;19974;-72
2022/07/28 02:10:20;;;;;;;;;;;;;;;-142.75;100.00;77399.09;5052291;28;19913;-70
2022/07/28 02:12:47;;;;;;;;;;;;;;;-142.75;100.00;77391.22;5051857;28;19955;-69
2022/07/28 02:15:13;;;;;;;;;;;;;;;-142.75;100.00;77403.03;5051909;28;20424;-71
2022/07/28 02:17:41;;;;;;;;;;;;;;;-142.75;100.00;77401.06;5051921;28;20332;-71
2022/07/28 02:20:08;;;;;;;;;;;;;;;-142.75;100.00;77406.97;5052266;28;19917;-71
2022/07/28 02:22:35;;;;;;;;;;;;;;;-142.75;100.00;77401.06;5052279;28;19917;-71
2022/07/28 02:25:01;;;;;;;;;;;;;;;-142.75;100.00;77414.84;5034665;28;19935;-72
2022/07/28 02:27:35;;;;;;;;;;;;;;;-142.75;100.00;77408.94;5051858;28;20450;-71
2022/07/28 02:30:08;;;;;;;;;;;;;;;-142.75;100.00;77410.91;5052148;28;19959;-71
2022/07/28 02:32:47;;;;;;;;;;;;;;;-142.75;100.00;77416.81;5057780;22;19967;-67
2022/07/28 02:35:18;;;;;;;;;;;;;;;-142.75;100.00;77428.63;5031356;28;19936;-67
2022/07/28 02:37:49;;;;;;;;;;;;;;;-142.75;100.00;77428.63;5031808;28;20305;-67
2022/07/28 02:40:15;;;;;;;;;;;;;;;-142.75;100.00;77426.66;5031892;28;19913;-68
2022/07/28 02:42:44;;;;;;;;;;;;;;;-142.75;100.00;77420.75;5031740;28;20416;-67
2022/07/28 02:45:11;;;;;;;;;;;;;;;-142.75;100.00;77420.75;5033074;28;19936;-67
2022/07/28 02:47:39;;;;;;;;;;;;;;;-142.75;100.00;77424.69;5035316;28;20023;-67
2022/07/28 02:50:05;;;;;;;;;;;;;;;-142.75;100.00;77416.81;5035538;28;19999;-67
2022/07/28 02:52:32;;;;;;;;;;;;;;;-142.75;100.00;77420.75;5036367;28;19914;-67
2022/07/28 02:54:58;;;;;;;;;;;;;;;-142.75;100.00;77420.75;5036089;28;19976;-67
2022/07/28 02:57:25;;;;;;;;;;;;;;;-142.75;100.00;77414.84;5034362;28;21466;-67
2022/07/28 02:59:51;;;;;;;;;;;;;;;-142.75;100.00;77426.66;5035751;28;20012;-67
2022/07/28 03:02:18;;;;;;;;;;;;;;;-142.75;100.00;77440.44;5036362;28;19944;-67
2022/07/28 03:04:55;;;;;;;;;;;;;;;-142.75;100.00;77440.44;5035270;28;19913;-67
2022/07/28 03:07:20;;;;;;;;;;;;;;;-142.75;100.00;77448.34;5017392;28;20298;-67
2022/07/28 03:09:46;;;;;;;;;;;;;;;-142.75;100.00;77454.25;5035309;28;19913;-67
2022/07/28 03:12:12;;;;;;;;;;;;;;;-142.75;100.00;77458.16;5035096;28;20287;-67
2022/07/28 03:14:37;;;;;;;;;;;;;;;-142.75;100.00;77456.22;5017359;28;19948;-67
2022/07/28 03:17:03;;;;;;;;;;;;;;;-142.75;100.00;77464.09;5034805;28;19972;-67
2022/07/28 03:19:28;;;;;;;;;;;;;;;-142.75;100.00;77464.09;5036211;28;19964;-67
2022/07/28 03:21:53;;;;;;;;;;;;;;;-142.75;100.00;77475.91;5034877;28;19943;-67
2022/07/28 03:24:20;;;;;;;;;;;;;;;-142.75;100.00;77479.84;5034983;28;19966;-67
2022/07/28 03:27:12;;;;;;;;;;;;;;;-142.75;100.00;77473.94;5034620;28;19913;-67
2022/07/28 03:29:39;;;;;;;;;;;;;;;-142.75;100.00;77475.91;5032653;28;19913;-67
2022/07/28 03:32:05;;;;;;;;;;;;;;;-142.75;100.00;77483.78;5034575;28;20397;-67
2022/07/28 03:34:30;;;;;;;;;;;;;;;-142.75;100.00;77493.63;5017060;28;19959;-67
2022/07/28 03:37:00;;;;;;;;;;;;;;;-142.75;100.00;77497.56;5034379;28;20289;-68
2022/07/28 03:39:26;;;;;;;;;;;;;;;-142.75;100.00;77499.53;5034697;28;19924;-67
2022/07/28 03:41:52;;;;;;;;;;;;;;;-142.75;100.00;77503.47;5016847;28;20508;-67
2022/07/28 03:44:19;;;;;;;;;;;;;;;-142.75;100.00;77511.34;5034591;28;20000;-67
2022/07/28 03:46:44;;;;;;;;;;;;;;;-142.75;100.00;77511.34;5034243;28;20400;-67
2022/07/28 03:49:10;;;;;;;;;;;;;;;-142.75;100.00;77515.28;5034556;28;19912;-67
2022/07/28 03:51:35;;;;;;;;;;;;;;;-142.75;100.00;77511.34;5034448;28;19913;-67
2022/07/28 03:54:00;;;;;;;;;;;;;;;-142.75;100.00;77515.28;5034312;28;19920;-67
2022/07/28 03:56:25;;;;;;;;;;;;;;;-142.75;100.00;77509.38;5034251;28;20371;-67
2022/07/28 03:58:50;;;;;;;;;;;;;;;-142.75;100.00;77519.22;5034129;28;19913;-67
2022/07/28 04:01:15;;;;;;;;;;;;;;;-142.75;100.00;77527.09;5016513;28;19913;-67
2022/07/28 04:03:41;;;;;;;;;;;;;;;-142.75;100.00;77531.03;5034173;28;19917;-67
2022/07/28 04:06:06;;;;;;;;;;;;;;;-142.75;100.00;77531.03;5034184;28;19913;-68
2022/07/28 04:08:32;;;;;;;;;;;;;;;-142.75;100.00;77534.97;5033790;28;19913;-68
2022/07/28 04:10:57;;;;;;;;;;;;;;;-142.75;100.00;77533.00;5034053;28;20450;-68
2022/07/28 04:13:22;;;;;;;;;;;;;;;-142.75;100.00;77534.97;5034025;28;19913;-68
2022/07/28 04:15:48;;;;;;;;;;;;;;;-142.75;100.00;77536.94;5034052;28;19913;-67
2022/07/28 04:18:13;;;;;;;;;;;;;;;-142.75;100.00;77527.09;5033736;28;19960;-67
2022/07/28 04:20:38;;;;;;;;;;;;;;;-142.75;100.00;77527.09;5033860;28;19920;-67
2022/07/28 04:23:03;;;;;;;;;;;;;;;-142.75;100.00;77525.13;5033897;28;19918;-68
2022/07/28 04:25:28;;;;;;;;;;;;;;;-142.75;100.00;77527.09;5033593;28;20394;-67
2022/07/28 04:27:54;;;;;;;;;;;;;;;-142.75;100.00;77521.19;5033579;28;19959;-68
2022/07/28 04:30:23;;;;;;;;;;;;;;;-142.75;100.00;77525.13;5033697;28;19913;-67
2022/07/28 04:32:49;;;;;;;;;;;;;;;-142.75;100.00;77519.22;5033566;28;19924;-67
2022/07/28 04:35:15;;;;;;;;;;;;;;;-142.75;100.00;77523.16;5033677;28;20323;-67
2022/07/28 04:37:41;;;;;;;;;;;;;;;-142.75;100.00;77531.03;5033381;28;19913;-67
2022/07/28 04:40:07;;;;;;;;;;;;;;;-142.75;100.00;77527.09;5033386;28;19959;-67
2022/07/28 04:42:32;;;;;;;;;;;;;;;-142.75;100.00;77523.16;5033359;28;20264;-67
2022/07/28 04:44:57;;;;;;;;;;;;;;;-142.75;100.00;77519.22;5033428;28;19913;-67
2022/07/28 04:47:23;;;;;;;;;;;;;;;-142.75;100.00;77527.09;5033146;28;19917;-68
2022/07/28 04:49:48;;;;;;;;;;;;;;;-142.75;100.00;77527.09;5033335;28;19913;-67
2022/07/28 04:52:14;;;;;;;;;;;;;;;-142.75;100.00;77519.22;5033225;28;19913;-67
2022/07/28 04:54:39;;;;;;;;;;;;;;;-142.75;100.00;77519.22;5033128;28;20752;-67
2022/07/28 04:57:05;;;;;;;;;;;;;;;-142.75;100.00;77505.44;5032925;28;19948;-67
2022/07/28 04:59:30;;;;;;;;;;;;;;;-142.75;100.00;77507.41;5015390;28;19913;-67
2022/07/28 05:01:56;;;;;;;;;;;;;;;-142.75;100.00;77505.44;5032976;28;19925;-68
2022/07/28 05:04:21;;;;;;;;;;;;;;;-142.75;100.00;77491.66;5033428;28;19933;-68
2022/07/28 05:06:47;;;;;;;;;;;;;;;-142.75;100.00;77491.66;5032763;28;19913;-68
2022/07/28 05:09:12;;;;;;;;;;;;;;;-142.75;100.00;77485.75;5028962;28;19917;-68
2022/07/28 05:11:37;;;;;;;;;;;;;;;-142.75;100.00;77491.66;5032777;28;19913;-68
2022/07/28 05:14:02;;;;;;;;;;;;;;;-142.75;100.00;77493.63;5032877;28;20371;-67
2022/07/28 05:16:27;;;;;;;;;;;;;;;-142.75;100.00;77489.69;5032911;28;19921;-68
2022/07/28 05:18:52;;;;;;;;;;;;;;;-142.75;100.00;77487.72;5032641;28;19944;-67
2022/07/28 05:21:18;;;;;;;;;;;;;;;-142.75;100.00;77491.66;5015061;28;20345;-67
2022/07/28 05:23:43;;;;;;;;;;;;;;;-142.75;100.00;77491.66;5032267;28;19924;-67
2022/07/28 05:26:08;;;;;;;;;;;;;;;-142.75;100.00;77489.69;5032678;28;19919;-67
2022/07/28 05:28:33;;;;;;;;;;;;;;;-142.75;100.00;77477.88;5031192;28;19959;-67
2022/07/28 05:30:59;;;;;;;;;;;;;;;-142.75;100.00;77468.03;5030625;28;19924;-68
2022/07/28 05:33:24;;;;;;;;;;;;;;;-142.75;100.00;77460.13;5031063;28;20306;-67
2022/07/28 05:35:52;;;;;;;;;;;;;;;-142.75;100.00;77460.13;5032532;28;19984;-67
2022/07/28 05:38:17;;;;;;;;;;;;;;;-142.75;100.00;77442.41;5032079;28;19967;-67
2022/07/28 05:40:42;;;;;;;;;;;;;;;-142.75;100.00;77446.34;5032408;28;19913;-67
2022/07/28 05:43:08;;;;;;;;;;;;;;;-142.75;100.00;77428.63;5032351;28;19924;-67
2022/07/28 05:45:33;;;;;;;;;;;;;;;-142.75;100.00;77416.81;5014625;28;20436;-68
2022/07/28 05:47:58;;;;;;;;;;;;;;;-142.75;100.00;77408.94;5014337;28;20426;-67
2022/07/28 05:50:26;;;;;;;;;;;;;;;-142.75;100.00;77401.06;5032344;28;19914;-67
2022/07/28 05:52:51;;;;;;;;;;;;;;;-142.75;100.00;77385.31;5032103;28;19976;-68
2022/07/28 05:55:17;;;;;;;;;;;;;;;-142.75;100.00;77373.50;5032255;28;19917;-68
2022/07/28 05:57:43;;;;;;;;;;;;;;;-142.75;100.00;77361.69;5032041;28;19924;-67
2022/07/28 06:00:11;;;;;;;;;;;;;;;-142.75;100.00;77349.88;5032127;28;20432;-68
2022/07/28 06:02:37;;;;;;;;;;;;;;;-142.75;100.00;77342.00;5031948;28;20458;-67
2022/07/28 06:05:05;;;;;;;;;;;;;;;-142.75;100.00;77343.97;5031764;28;19956;-67
2022/07/28 06:07:30;;;;;;;;;;;;;;;-142.75;100.00;77326.25;5031750;28;19975;-67
2022/07/28 06:09:56;;;;;;;;;;;;;;;-142.75;100.00;77334.13;5030863;28;19964;-67
2022/07/28 06:12:21;;;;;;;;;;;;;;;-142.75;100.00;77330.19;5031036;28;19996;-67
2022/07/28 06:14:46;;;;;;;;;;;;;;;-142.75;100.00;77320.34;5031208;28;19920;-67
2022/07/28 06:17:13;;;;;;;;;;;;;;;-142.75;100.00;77312.47;5030789;28;19917;-67
2022/07/28 06:19:38;;;;;;;;;;;;;;;-142.75;100.00;77306.56;5031443;28;19939;-67
2022/07/28 06:22:05;;;;;;;;;;;;;;;-142.75;100.00;77302.63;5034913;28;19921;-67
2022/07/28 06:24:30;;;;;;;;;;;;;;;-142.75;100.00;77294.75;5034940;28;19924;-67
2022/07/28 06:26:55;;;;;;;;;;;;;;;-142.75;100.00;77294.75;5016971;28;19913;-68
2022/07/28 06:29:21;;;;;;;;;;;;;;;-142.75;100.00;77290.81;5035163;28;19913;-67
2022/07/28 06:31:46;;;;;;;;;;;;;;;-142.75;100.00;77286.88;5017236;28;20316;-67
2022/07/28 06:34:11;;;;;;;;;;;;;;;-142.75;100.00;77275.06;5035026;28;20016;-67
2022/07/28 06:36:37;;;;;;;;;;;;;;;-142.75;100.00;77263.25;5034461;28;19935;-67
2022/07/28 06:39:02;;;;;;;;;;;;;;;-142.75;100.00;77249.47;5034727;28;19913;-68
2022/07/28 06:41:27;;;;;;;;;;;;;;;-142.75;100.00;77214.03;5017005;28;19959;-66
2022/07/28 06:43:52;;;;;;;;;;;;;;;-142.75;100.00;77204.19;5034835;28;20401;-66
2022/07/28 06:46:18;;;;;;;;;;;;;;;-142.75;100.00;77176.63;5034737;28;19913;-66
2022/07/28 06:48:44;;;;;;;;;;;;;;;-142.75;100.00;77141.19;5034509;28;20393;-67
2022/07/28 06:51:10;;;;;;;;;;;;;;;-142.75;100.00;77103.78;5034365;28;19923;-67
2022/07/28 06:53:35;;;;;;;;;;;;;;;-142.75;100.00;77072.28;5035005;28;20011;-68
2022/07/28 06:56:01;;;;;;;;;;;;;;;-142.75;100.00;77038.81;5033266;28;20010;-67
2022/07/28 06:58:26;;;;;;;;;;;;;;;-142.75;100.00;77015.19;5015652;28;19971;-67
2022/07/28 07:00:52;;;;;;;;;;;;;;;-142.75;100.00;76995.50;5034311;28;19917;-68
2022/07/28 07:03:17;;;;;;;;;;;;;;;-142.75;100.00;76975.81;5034762;28;19924;-68
2022/07/28 07:05:42;;;;;;;;;;;;;;;-142.75;100.00;76981.72;5035143;28;19917;-67
2022/07/28 07:08:07;;;;;;;;;;;;;;;-142.75;100.00;76983.69;5034965;28;19920;-67
2022/07/28 07:10:33;;;;;;;;;;;;;;;-142.75;100.00;76954.16;5017432;28;20007;-67
2022/07/28 07:12:59;;;;;;;;;;;;;;;-142.75;100.00;76952.19;5035097;28;20012;-67
2022/07/28 07:15:24;;;;;;;;;;;;;;;-142.75;100.00;76987.63;5035426;28;20370;-68
2022/07/28 07:17:49;;;;;;;;;;;;;;;-142.75;100.00;76981.72;5035374;28;19913;-67
2022/07/28 07:20:15;;;;;;;;;;;;;;;-142.75;100.00;76971.88;5035453;28;19917;-67
2022/07/28 07:22:44;;;;;;;;;;;;;;;-142.75;100.00;76962.03;5035111;28;19976;-67
2022/07/28 07:25:10;;;;;;;;;;;;;;;-142.75;100.00;76932.50;5035551;28;20294;-67
2022/07/28 07:27:35;;;;;;;;;;;;;;;-142.75;100.00;76926.59;5035182;28;20299;-66
2022/07/28 07:30:01;;;;;;;;;;;;;;;-142.75;100.00;76893.13;5035220;28;19918;-67
2022/07/28 07:32:26;;;;;;;;;;;;;;;-142.75;100.00;76910.84;5034515;28;20076;-67
2022/07/28 07:34:51;;;;;;;;;;;;;;;-142.75;100.00;76918.72;5034899;28;20282;-67
2022/07/28 07:37:17;;;;;;;;;;;;;;;-142.75;100.00;76936.44;5034851;28;19948;-67
2022/07/28 07:39:42;;;;;;;;;;;;;;;-142.75;100.00;76936.44;5035144;28;19967;-66
2022/07/28 07:42:07;;;;;;;;;;;;;;;-142.75;100.00;76912.81;5034947;28;19917;-67
2022/07/28 07:44:32;;;;;;;;;;;;;;;-142.75;100.00;76865.56;5034874;28;20000;-68
2022/07/28 07:46:58;;;;;;;;;;;;;;;-142.75;100.00;76847.84;5034941;28;19913;-67
2022/07/28 07:49:23;;;;;;;;;;;;;;;-142.75;100.00;76814.38;5034954;28;19913;-67
2022/07/28 07:51:48;;;;;;;;;;;;;;;-142.75;100.00;76782.91;5034772;28;19913;-67
2022/07/28 07:54:13;;;;;;;;;;;;;;;-142.75;100.00;76798.66;5034948;28;20382;-67
2022/07/28 07:56:39;;;;;;;;;;;;;;;-142.75;100.00;76782.91;5034412;28;20011;-66
2022/07/28 07:59:04;;;;;;;;;;;;;;;-142.75;100.00;76775.03;5016972;28;19921;-67
2022/07/28 08:01:29;;;;;;;;;;;;;;;-142.75;100.00;76735.66;5034497;28;20294;-67
2022/07/28 08:03:54;;;;;;;;;;;;;;;-142.75;100.00;76702.19;5034516;28;19917;-67
2022/07/28 08:06:19;;;;;;;;;;;;;;;-142.75;100.00;76680.53;5034797;28;19976;-66
2022/07/28 08:08:45;;;;;;;;;;;;;;;-142.75;93.47;76714.00;5034101;28;19924;-67
2022/07/28 08:11:11;;;;;;;;;;;;;;;-142.75;93.70;76737.63;5034451;28;19915;-67
2022/07/28 08:13:36;;;;;;;;;;;;;;;-142.75;100.00;76733.69;5034414;28;19913;-67
2022/07/28 08:16:02;;;;;;;;;;;;;;;-142.75;100.00;76684.47;5034862;28;20362;-67
2022/07/28 08:18:27;;;;;;;;;;;;;;;-142.75;100.00;76643.13;5034315;28;20040;-67
2022/07/28 08:20:53;;;;;;;;;;;;;;;-142.75;94.75;76647.06;5016528;28;20388;-67
2022/07/28 08:23:18;;;;;;;;;;;;;;;-142.75;91.44;76617.53;5016286;28;19924;-67
2022/07/28 08:25:43;;;;;;;;;;;;;;;-142.75;92.62;76593.91;5032252;28;19917;-67
2022/07/28 08:28:08;;;;;;;;;;;;;;;-142.75;89.46;76568.31;5034566;28;19964;-67
2022/07/28 08:30:33;;;;;;;;;;;;;;;-142.75;92.36;76564.38;5015981;28;20380;-67
2022/07/28 08:32:59;;;;;;;;;;;;;;;-142.75;89.29;76589.97;5055524;22;20025;-70
2022/07/28 08:35:25;;;;;;;;;;;;;;;-142.75;87.89;76615.56;5032666;28;19996;-71
2022/07/28 08:37:50;;;;;;;;;;;;;;;-142.75;93.61;76578.16;5033290;28;20424;-70
2022/07/28 08:40:15;;;;;;;;;;;;;;;-142.75;90.72;76552.56;5033491;28;19913;-71
2022/07/28 08:42:45;;;;;;;;;;;;;;;-142.75;83.68;76523.06;5032633;28;20406;-70
2022/07/28 08:45:10;;;;;;;;;;;;;;;-142.75;83.05;76515.19;5033079;28;20486;-70
2022/07/28 08:47:36;;;;;;;;;;;;;;;-142.75;82.28;76475.81;5031348;28;19960;-67
2022/07/28 08:50:01;;;;;;;;;;;;;;;-142.75;77.01;76483.69;5030378;28;20315;-71
2022/07/28 08:52:30;;;;;;;;;;;;;;;-142.75;78.76;76499.44;5033490;28;19929;-71
2022/07/28 08:54:56;;;;;;;;;;;;;;;-142.75;75.63;76493.53;5033655;28;19913;-69
2022/07/28 08:57:25;;;;;;;;;;;;;;;-142.75;77.21;76464.00;5033075;28;19913;-70
2022/07/28 08:59:51;;;;;;;;;;;;;;;-142.75;77.66;76465.97;5033496;28;19974;-71
2022/07/28 09:02:17;;;;;;;;;;;;;;;-142.75;77.80;76501.41;5033345;28;20411;-70
2022/07/28 09:04:44;;;;;;;;;;;;;;;-142.75;75.95;76515.19;5033233;28;19917;-71
2022/07/28 09:07:10;;;;;;;;;;;;;;;-142.75;75.42;76491.56;5032883;28;19913;-70
2022/07/28 09:09:36;;;;;;;;;;;;;;;-142.75;78.26;76483.69;5033104;28;19920;-67
2022/07/28 09:12:04;;;;;;;;;;;;;;;-142.75;76.02;76519.13;5033066;28;20294;-71
2022/07/28 09:14:29;;;;;;;;;;;;;;;-142.75;76.52;76552.56;5033334;28;19913;-71
2022/07/28 09:16:56;;;;;;;;;;;;;;;-142.75;77.01;76578.16;5031144;28;20008;-70
2022/07/28 09:19:21;;;;;;;;;;;;;;;-142.75;80.36;76576.19;5032670;28;19917;-71
2022/07/28 09:21:47;;;;;;;;;;;;;;;-142.75;80.49;76580.13;5031347;28;19959;-71
2022/07/28 09:24:30;;;;;;;;;;;;;;;-142.75;80.13;76586.03;5032701;28;19975;-70
2022/07/28 09:27:03;;;;;;;;;;;;;;;-142.75;81.52;76562.41;5032482;28;20012;-71
2022/07/28 09:29:28;;;;;;;;;;;;;;;-142.75;88.35;76562.41;5032532;28;19913;-71
2022/07/28 09:31:54;;;;;;;;;;;;;;;-142.75;84.20;76546.66;5032316;28;19917;-70
2022/07/28 09:34:20;;;;;;;;;;;;;;;-142.75;83.11;76523.06;5032659;28;20000;-71
2022/07/28 09:36:45;;;;;;;;;;;;;;;-142.75;80.11;76519.13;5032340;28;19935;-71
2022/07/28 09:39:10;;;;;;;;;;;;;;;-142.75;78.53;76517.16;5032656;28;19999;-70
2022/07/28 09:41:48;;;;;;;;;;;;;;;-142.75;77.16;76493.53;5032456;28;19913;-67
2022/07/28 09:44:20;;;;;;;;;;;;;;;-142.75;75.29;76497.47;5032482;28;19936;-71
2022/07/28 09:46:45;;;;;;;;;;;;;;;-142.75;76.95;76511.25;5032279;28;19920;-70
2022/07/28 09:49:11;;;;;;;;;;;;;;;-142.75;76.77;76527.00;5031244;28;19913;-70
2022/07/28 09:51:37;;;;;;;;;;;;;;;-142.75;78.25;76515.19;5032354;28;19913;-67
2022/07/28 09:54:12;;;;;;;;;;;;;;;-142.75;80.98;76495.50;5031098;28;19917;-70
2022/07/28 09:56:39;;;;;;;;;;;;;;;-142.75;75.92;76465.97;5032017;28;19913;-67
2022/07/28 09:59:04;;;;;;;;;;;;;;;-142.75;74.32;76440.38;5032378;28;19943;-70
2022/07/28 10:01:29;;;;;;;;;;;;;;;-142.75;77.02;76397.06;5030871;28;20007;-71
2022/07/28 10:03:56;;;;;;;;;;;;;;;-142.75;72.91;76357.69;5031001;28;20295;-70
2022/07/28 10:06:31;;;;;;;;;;;;;;;-142.75;73.75;76324.25;5032284;28;19913;-71
2022/07/28 10:08:58;;;;;;;;;;;;;;;-142.75;69.44;76310.47;5030877;28;19992;-70
2022/07/28 10:11:27;;;;;;;;;;;;;;;-142.75;71.39;76273.06;5032075;28;19936;-71
2022/07/28 10:14:03;;;;;;;;;;;;;;;-142.75;68.89;76294.72;5032178;28;20297;-71
2022/07/28 10:16:30;;;;;;;;;;;;;;;-142.75;68.25;76267.16;5032107;28;20378;-70
2022/07/28 10:18:55;;;;;;;;;;;;;;;-142.75;68.68;76223.84;5031989;28;20359;-71
2022/07/28 10:21:21;;;;;;;;;;;;;;;-142.75;69.44;76182.53;5032206;28;19913;-70
2022/07/28 10:23:48;;;;;;;;;;;;;;;-142.75;69.92;76182.53;5031860;28;19924;-71
2022/07/28 10:26:14;;;;;;;;;;;;;;;-142.75;65.99;76215.97;5030719;28;19913;-70
2022/07/28 10:28:43;;;;;;;;;;;;;;;-142.75;67.01;76192.38;5031760;28;19920;-69
2022/07/28 10:31:09;;;;;;;;;;;;;;;-142.75;66.12;76178.59;5031840;28;19913;-71
2022/07/28 10:33:37;;;;;;;;;;;;;;;-142.75;69.49;76119.53;5031986;28;19913;-71
2022/07/28 10:36:02;;;;;;;;;;;;;;;-142.75;66.97;76082.13;5030667;28;20386;-71
2022/07/28 10:38:33;;;;;;;;;;;;;;;-142.75;61.40;76068.38;5031620;28;19920;-69
2022/07/28 10:41:00;;;;;;;;;;;;;;;-142.75;59.93;76058.53;5032237;28;19913;-71
2022/07/28 10:43:26;;;;;;;;;;;;;;;-142.75;59.19;76066.41;5032105;28;19917;-71
2022/07/28 10:45:52;;;;;;;;;;;;;;;-142.75;58.97;76042.78;5032189;28;19913;-71
2022/07/28 10:48:20;;;;;;;;;;;;;;;-142.75;58.26;76034.91;5031847;28;19913;-72
2022/07/28 10:50:45;;;;;;;;;;;;;;;-142.75;56.45;76040.81;5032112;28;20297;-71
2022/07/28 10:53:17;;;;;;;;;;;;;;;-142.75;52.94;76046.72;5032214;28;19920;-71
2022/07/28 10:55:51;;;;;;;;;;;;;;;-142.75;57.92;76046.72;5031889;28;19918;-70
2022/07/28 10:58:29;;;;;;;;;;;;;;;-142.75;55.69;76074.25;5030328;28;19963;-71
2022/07/28 11:00:54;;;;;;;;;;;;;;;-142.75;58.63;76036.88;5031725;28;19967;-71
2022/07/28 11:03:34;;;;;;;;;;;;;;;-142.75;58.29;76048.69;5031657;28;19921;-71
2022/07/28 11:06:18;;;;;;;;;;;;;;;-142.75;58.73;76050.66;5032826;28;19963;-71
2022/07/28 11:08:43;;;;;;;;;;;;;;;-142.75;58.49;76023.09;5035115;28;19920;-70
2022/07/28 11:11:09;;;;;;;;;;;;;;;-142.75;57.60;76007.34;5033882;28;19913;-70
2022/07/28 11:13:35;;;;;;;;;;;;;;;-142.75;59.38;75989.63;5035170;28;19913;-69
2022/07/28 11:16:12;;;;;;;;;;;;;;;-142.75;56.85;75975.84;5033791;28;19924;-69
2022/07/28 11:18:56;;;;;;;;;;;;;;;-142.75;62.55;75948.31;5034952;28;19913;-70
2022/07/28 11:21:21;;;;;;;;;;;;;;;-142.75;59.13;75932.56;5035050;28;20449;-70
2022/07/28 11:23:53;;;;;;;;;;;;;;;-142.75;57.84;75952.25;5035041;28;20004;-70
2022/07/28 11:26:21;;;;;;;;;;;;;;;-142.75;58.63;75940.44;5033721;28;19913;-70
2022/07/28 11:28:58;;;;;;;;;;;;;;;-142.75;59.59;75932.56;5034815;28;19914;-71
2022/07/28 11:31:42;;;;;;;;;;;;;;;-142.75;58.52;75944.38;5034765;28;20011;-71
2022/07/28 11:34:08;;;;;;;;;;;;;;;-142.75;57.35;75975.84;5034979;28;19983;-71
2022/07/28 11:36:52;;;;;;;;;;;;;;;-142.75;59.00;75942.41;5034552;28;19988;-69
2022/07/28 11:39:46;;;;;;;;;;;;;;;-142.75;57.60;75936.50;5034790;28;19920;-71
2022/07/28 11:42:27;;;;;;;;;;;;;;;-142.75;59.69;75950.28;5030773;28;20279;-70
2022/07/28 11:44:52;;;;;;;;;;;;;;;-142.75;57.51;75899.09;5053957;28;19946;-69
2022/07/28 11:47:18;;;;;;;;;;;;;;;-142.75;52.21;75881.38;5052954;28;20339;-70
2022/07/28 11:49:45;;;;;;;;;;;;;;;-142.75;55.02;75893.19;5054404;28;19916;-68
2022/07/28 11:52:11;;;;;;;;;;;;;;;-142.75;56.48;75873.50;5044931;28;19920;-68
2022/07/28 11:54:38;;;;;;;;;;;;;;;-142.75;56.79;75871.53;5034289;28;19936;-68
2022/07/28 11:57:06;;;;;;;;;;;;;;;-142.75;53.50;75853.84;5032568;28;19913;-72
2022/07/28 11:59:41;;;;;;;;;;;;;;;-142.75;56.92;75881.38;5034339;28;19913;-72
2022/07/28 12:02:07;;;;;;;;;;;;;;;-142.75;54.04;75932.56;5034026;28;20022;-71
2022/07/28 12:04:32;;;;;;;;;;;;;;;-142.75;52.85;75922.72;5033963;28;20023;-70
2022/07/28 12:06:57;;;;;;;;;;;;;;;-142.75;56.02;75899.09;5033568;28;19979;-73
2022/07/28 12:09:28;;;;;;;;;;;;;;;-142.75;52.05;75893.19;5034101;28;19917;-70
2022/07/28 12:11:54;;;;;;;;;;;;;;;-142.75;51.22;75899.09;5034042;28;19914;-72
2022/07/28 12:14:21;;;;;;;;;;;;;;;-142.75;50.82;75940.44;5034062;28;19939;-72
2022/07/28 12:16:48;;;;;;;;;;;;;;;-142.75;55.06;75958.16;5033414;28;19928;-69
2022/07/28 12:19:14;;;;;;;;;;;;;;;-142.75;56.60;75950.28;5033196;28;20018;-71
2022/07/28 12:21:40;;;;;;;;;;;;;;;-142.75;58.06;75991.59;5032585;28;20378;-72